Time;durP1;ratioP1;P1;durP2;ratioP2;P2;SDS_P1;SDS_P2;PMS_P1;PMS_P2;Temp;Humidity;BMP_temperature;BMP_pressure;BME280_temperature;BME280_humidity;BME280_pressure;Samples;Min_cycle;Max_cycle;Signal;HPM_P1;HPM_P2
2021/05/07 00:00:07;;;;;;;13.70;8.55;;;;;;;8.30;72.19;99735.52;1767604;80;25430;-74
2021/05/07 00:02:36;;;;;;;10.05;7.55;;;;;;;8.30;72.25;99732.84;1789322;80;25750;-74
2021/05/07 00:05:04;;;;;;;9.55;7.80;;;;;;;8.31;72.44;99729.17;1801079;78;25876;-73
2021/05/07 00:07:32;;;;;;;9.05;7.80;;;;;;;8.32;72.38;99728.97;1743141;78;27532;-74
2021/05/07 00:09:59;;;;;;;10.58;8.15;;;;;;;8.30;72.68;99723.51;1777354;78;25645;-73
2021/05/07 00:12:27;;;;;;;9.88;8.73;;;;;;;8.27;72.65;99719.41;1797941;78;25650;-73
2021/05/07 00:14:54;;;;;;;12.73;10.15;;;;;;;8.28;72.76;99717.54;1792932;78;26451;-73
2021/05/07 00:17:21;;;;;;;11.38;10.10;;;;;;;8.29;72.81;99717.88;1791190;78;25753;-73
2021/05/07 00:19:48;;;;;;;14.33;10.72;;;;;;;8.29;72.70;99711.20;1749959;80;28285;-74
2021/05/07 00:22:16;;;;;;;13.38;10.58;;;;;;;8.26;72.97;99713.74;1788609;79;25678;-74
2021/05/07 00:24:43;;;;;;;12.45;10.10;;;;;;;8.26;73.02;99716.91;1745769;80;26464;-73
2021/05/07 00:27:10;;;;;;;14.23;11.40;;;;;;;8.24;73.12;99713.08;1778597;80;25702;-73
2021/05/07 00:29:38;;;;;;;14.65;11.38;;;;;;;8.23;73.19;99710.08;1791102;78;25932;-74
2021/05/07 00:32:05;;;;;;;15.03;12.07;;;;;;;8.25;73.20;99711.24;1770723;80;27537;-73
2021/05/07 00:34:33;;;;;;;13.93;11.83;;;;;;;8.25;73.34;99703.23;1749573;78;26458;-74
2021/05/07 00:37:00;;;;;;;17.15;11.38;;;;;;;8.27;73.49;99705.23;1762020;78;25795;-73
2021/05/07 00:39:27;;;;;;;13.85;10.68;;;;;;;8.29;73.58;99700.53;1796201;78;25766;-74
2021/05/07 00:42:02;;;;;;;14.07;10.45;;;;;;;8.29;73.42;99700.03;1793871;79;26673;-73
2021/05/07 00:44:25;;;;;;;12.30;10.68;;;;;;;8.29;73.49;99698.69;1777956;78;28329;-73
2021/05/07 00:46:53;;;;;;;13.60;11.22;;;;;;;8.27;73.47;99694.56;1771975;78;26273;-73
2021/05/07 00:49:21;;;;;;;15.15;11.53;;;;;;;8.26;73.60;99695.06;1762732;79;25813;-74
2021/05/07 00:51:49;;;;;;;15.20;12.58;;;;;;;8.23;73.79;99699.41;1789450;79;26409;-73
2021/05/07 00:54:17;;;;;;;15.38;11.95;;;;;;;8.24;73.95;99690.41;1766754;79;25741;-74
2021/05/07 00:56:44;;;;;;;13.65;11.65;;;;;;;8.27;74.10;99689.23;1784924;78;27453;-74
2021/05/07 00:59:11;;;;;;;15.78;11.18;;;;;;;8.26;73.96;99675.56;1769918;78;26395;-73
2021/05/07 01:01:39;;;;;;;16.27;12.73;;;;;;;8.22;74.14;99673.77;1795418;78;25873;-73
2021/05/07 01:04:06;;;;;;;17.27;12.82;;;;;;;8.17;74.32;99678.05;1736441;80;26489;-74
2021/05/07 01:06:33;;;;;;;15.35;11.90;;;;;;;8.14;74.29;99669.92;1798723;78;25832;-73
2021/05/07 01:09:01;;;;;;;17.70;12.47;;;;;;;8.13;74.44;99672.25;1795909;78;27090;-73
2021/05/07 01:11:29;;;;;;;15.75;12.30;;;;;;;8.14;74.55;99670.42;1793321;78;25873;-72
2021/05/07 01:13:57;;;;;;;13.15;11.38;;;;;;;8.13;74.53;99663.42;1780424;78;26468;-73
2021/05/07 01:16:24;;;;;;;15.68;11.12;;;;;;;8.13;74.60;99656.25;1778828;78;25911;-74
2021/05/07 01:18:51;;;;;;;14.78;10.13;;;;;;;8.15;74.63;99658.21;1803488;78;26333;-74
2021/05/07 01:21:19;;;;;;;17.23;11.05;;;;;;;8.16;74.66;99647.88;1780165;78;28994;-73
2021/05/07 01:23:47;;;;;;;17.80;11.38;;;;;;;8.16;74.63;99637.20;1740040;80;25742;-74
2021/05/07 01:26:15;;;;;;;17.07;10.75;;;;;;;8.17;74.69;99635.37;1747361;80;25798;-74
2021/05/07 01:28:43;;;;;;;16.02;11.45;;;;;;;8.14;74.72;99627.74;1699464;81;26177;-74
2021/05/07 01:31:10;;;;;;;18.02;11.65;;;;;;;8.12;74.81;99626.61;1712285;82;25723;-73
2021/05/07 01:33:40;;;;;;;14.35;10.82;;;;;;;8.13;74.82;99626.08;1730759;81;29628;-73
2021/05/07 01:36:07;;;;;;;16.80;12.60;;;;;;;8.13;74.98;99630.08;1693875;82;26078;-74
2021/05/07 01:38:36;;;;;;;16.67;12.13;;;;;;;8.13;74.99;99633.58;1735107;80;26492;-74
2021/05/07 01:41:05;;;;;;;19.32;13.80;;;;;;;8.11;74.97;99624.95;1731886;81;26266;-74
2021/05/07 01:43:34;;;;;;;21.15;14.03;;;;;;;8.08;74.95;99620.02;1735072;81;25713;-74
2021/05/07 01:46:03;;;;;;;17.77;13.70;;;;;;;8.08;74.97;99625.86;1693307;81;27561;-74
2021/05/07 01:48:31;;;;;;;19.73;13.35;;;;;;;8.09;75.04;99616.32;1701897;81;25753;-73
2021/05/07 01:50:59;;;;;;;18.90;13.70;;;;;;;8.11;75.00;99622.28;1707491;83;25751;-73
2021/05/07 01:53:28;;;;;;;20.62;14.23;;;;;;;8.13;75.11;99622.08;1735305;81;26279;-74
2021/05/07 01:55:56;;;;;;;18.92;13.98;;;;;;;8.15;75.00;99621.38;1694626;81;26103;-74
2021/05/07 01:58:36;;;;;;;19.07;13.45;;;;;;;8.19;74.97;99615.45;1793751;79;26231;-73
2021/05/07 02:01:04;;;;;;;16.48;14.23;;;;;;;8.13;75.07;99609.58;1753747;79;26014;-75
2021/05/07 02:03:31;;;;;;;20.25;15.48;;;;;;;8.14;75.20;99602.41;1723236;79;28436;-73
2021/05/07 02:06:00;;;;;;;18.95;13.83;;;;;;;8.13;75.34;99596.23;1776834;79;25824;-73
2021/05/07 02:08:29;;;;;;;20.10;14.50;;;;;;;8.08;75.21;99594.69;1765377;80;25599;-73
2021/05/07 02:10:56;;;;;;;24.40;14.28;;;;;;;8.07;75.35;99594.86;1719997;80;26041;-74
2021/05/07 02:13:24;;;;;;;19.52;14.78;;;;;;;8.09;75.40;99592.31;1743173;80;25934;-73
2021/05/07 02:15:52;;;;;;;18.50;13.78;;;;;;;8.09;75.51;99583.48;1745359;79;28294;-74
2021/05/07 02:18:24;;;;;;;16.90;13.48;;;;;;;8.09;75.51;99580.81;1707133;82;26298;-74
2021/05/07 02:20:54;;;;;;;17.67;13.30;;;;;;;8.06;75.50;99585.22;1689690;83;25881;-73
2021/05/07 02:23:23;;;;;;;23.38;13.95;;;;;;;8.07;75.51;99583.69;1684132;81;25882;-73
2021/05/07 02:25:50;;;;;;;20.15;13.88;;;;;;;8.07;75.51;99578.86;1687172;83;26680;-74
2021/05/07 02:28:20;;;;;;;19.45;13.35;;;;;;;8.07;75.55;99574.86;1724663;81;27610;-73
2021/05/07 02:30:47;;;;;;;17.42;13.60;;;;;;;8.05;75.51;99576.39;1674445;84;25765;-73
2021/05/07 02:33:14;;;;;;;17.62;14.03;;;;;;;8.03;75.48;99566.94;1668728;81;25799;-73
2021/05/07 02:35:42;;;;;;;18.40;14.23;;;;;;;8.04;75.49;99558.73;1692930;81;26450;-73
2021/05/07 02:38:10;;;;;;;18.77;12.95;;;;;;;8.02;75.45;99562.64;1722386;81;25851;-73
2021/05/07 02:40:38;;;;;;;19.05;13.80;;;;;;;7.95;75.41;99557.77;1673632;81;27612;-73
2021/05/07 02:43:05;;;;;;;19.02;14.93;;;;;;;7.91;75.54;99551.17;1681993;83;25851;-74
2021/05/07 02:45:34;;;;;;;15.53;13.10;;;;;;;7.88;75.58;99546.22;1686780;83;25823;-74
2021/05/07 02:48:02;;;;;;;15.72;12.68;;;;;;;7.86;75.38;99553.09;1714131;81;25920;-73
2021/05/07 02:50:30;;;;;;;17.95;13.90;;;;;;;7.83;75.32;99551.33;1669639;84;26178;-73
2021/05/07 02:52:57;;;;;;;16.17;12.47;;;;;;;7.76;75.37;99552.08;1698024;80;28314;-73
2021/05/07 02:55:25;;;;;;;18.15;13.03;;;;;;;7.75;75.62;99549.12;1732164;80;25839;-74
2021/05/07 02:57:53;;;;;;;20.05;14.10;;;;;;;7.74;75.65;99543.98;1718455;82;25839;-73
2021/05/07 03:00:22;;;;;;;16.73;13.48;;;;;;;7.70;75.63;99539.53;1684869;82;26008;-74
2021/05/07 03:02:49;;;;;;;19.25;13.48;;;;;;;7.65;75.74;99537.98;1674724;83;25837;-74
2021/05/07 03:05:16;;;;;;;15.70;13.05;;;;;;;7.64;75.91;99534.98;1687489;82;27352;-73
2021/05/07 03:07:44;;;;;;;16.35;12.35;;;;;;;7.61;76.07;99531.36;1708671;82;26433;-73
2021/05/07 03:10:11;;;;;;;17.35;12.40;;;;;;;7.63;76.14;99522.66;1650266;85;25849;-73
2021/05/07 03:12:38;;;;;;;15.80;13.03;;;;;;;7.62;76.24;99513.03;1680148;83;25914;-73
2021/05/07 03:15:07;;;;;;;18.30;12.45;;;;;;;7.61;76.24;99511.38;1686811;82;25820;-73
2021/05/07 03:17:36;;;;;;;18.85;12.82;;;;;;;7.60;76.39;99505.75;1712805;82;28536;-74
2021/05/07 03:20:06;;;;;;;18.55;14.23;;;;;;;7.61;76.51;99514.04;1673690;82;25845;-74
2021/05/07 03:22:33;;;;;;;15.63;13.40;;;;;;;7.61;76.54;99511.38;1668820;82;26415;-74
2021/05/07 03:25:01;;;;;;;17.67;14.05;;;;;;;7.67;76.74;99514.63;1686697;82;25374;-73
2021/05/07 03:27:28;;;;;;;17.50;13.68;;;;;;;7.71;76.69;99513.20;1700749;82;26103;-73
2021/05/07 03:29:55;;;;;;;17.85;14.60;;;;;;;7.72;76.71;99512.17;1660802;85;27613;-74
2021/05/07 03:32:23;;;;;;;18.62;13.25;;;;;;;7.71;76.81;99510.55;1666352;82;26118;-73
2021/05/07 03:34:50;;;;;;;17.82;14.05;;;;;;;7.69;76.91;99508.59;1685438;82;25945;-73
2021/05/07 03:37:18;;;;;;;14.87;12.58;;;;;;;7.67;76.95;99506.63;1686689;83;25981;-73
2021/05/07 03:39:45;;;;;;;17.82;14.75;;;;;;;7.68;77.05;99508.25;1647343;82;26185;-73
2021/05/07 03:42:12;;;;;;;17.65;14.55;;;;;;;7.71;77.18;99503.05;1676412;82;27541;-73
2021/05/07 03:44:40;;;;;;;21.07;15.20;;;;;;;7.73;77.25;99507.17;1675955;82;25918;-74
2021/05/07 03:47:07;;;;;;;18.12;14.07;;;;;;;7.77;77.21;99512.92;1717152;82;25871;-74
2021/05/07 03:49:35;;;;;;;20.02;13.88;;;;;;;7.78;77.25;99510.59;1648786;82;25808;-73
2021/05/07 03:52:02;;;;;;;19.50;15.38;;;;;;;7.82;77.32;99507.02;1674624;83;26410;-73
2021/05/07 03:54:32;;;;;;;19.62;14.35;;;;;;;7.86;77.27;99501.60;1672910;82;28191;-73
2021/05/07 03:57:00;;;;;;;19.85;15.80;;;;;;;7.90;77.38;99502.85;1713181;82;25955;-73
2021/05/07 03:59:27;;;;;;;19.32;14.90;;;;;;;7.92;77.29;99504.81;1639191;83;25909;-74
2021/05/07 04:01:54;;;;;;;23.80;15.78;;;;;;;7.95;77.22;99513.27;1700615;83;26115;-74
2021/05/07 04:04:22;;;;;;;18.57;14.63;;;;;;;7.96;77.27;99512.23;1673071;83;26578;-72
2021/05/07 04:06:49;;;;;;;16.57;14.65;;;;;;;7.98;77.17;99517.35;1691285;83;27556;-73
2021/05/07 04:09:20;;;;;;;16.85;13.32;;;;;;;8.00;77.13;99520.67;1634266;85;25816;-73
2021/05/07 04:14:18;;;;;;;20.05;14.63;;;;;;;8.02;77.20;99528.77;1678508;84;25910;-74
2021/05/07 04:16:46;;;;;;;19.30;15.00;;;;;;;8.03;77.19;99537.59;1681591;83;25770;-73
2021/05/07 04:19:13;;;;;;;19.95;15.50;;;;;;;8.04;77.18;99533.92;1671186;83;27561;-73
2021/05/07 04:21:41;;;;;;;20.15;14.90;;;;;;;8.04;77.18;99528.06;1691018;83;26023;-73
2021/05/07 04:24:09;;;;;;;20.37;15.00;;;;;;;8.06;77.24;99541.22;1687183;83;26042;-73
2021/05/07 04:26:36;;;;;;;22.77;16.75;;;;;;;8.06;77.48;99533.22;1705774;83;25722;-73
2021/05/07 04:29:04;;;;;;;18.80;14.53;;;;;;;8.08;77.53;99540.02;1666788;84;26121;-73
2021/05/07 04:31:31;;;;;;;18.60;12.85;;;;;;;8.08;77.49;99537.34;1684689;83;27554;-74
2021/05/07 04:33:58;;;;;;;19.27;13.38;;;;;;;8.05;77.52;99540.89;1687239;83;25650;-73
2021/05/07 04:36:26;;;;;;;19.23;14.65;;;;;;;8.00;77.53;99539.34;1703369;83;25806;-73
2021/05/07 04:38:56;;;;;;;18.45;13.62;;;;;;;7.96;77.79;99536.22;1675640;83;25429;-74
2021/05/07 04:41:22;;;;;;;20.35;14.60;;;;;;;7.91;77.88;99530.67;1693291;83;26660;-73
2021/05/07 04:43:49;;;;;;;20.90;15.43;;;;;;;7.89;78.02;99534.55;1685665;83;27493;-73
2021/05/07 04:46:17;;;;;;;17.92;14.70;;;;;;;7.87;78.21;99532.59;1705946;83;26096;-73
2021/05/07 04:48:44;;;;;;;22.93;14.28;;;;;;;7.84;78.30;99528.97;1678179;83;26511;-75
2021/05/07 04:51:11;;;;;;;17.30;13.72;;;;;;;7.85;78.54;99523.97;1672666;83;25918;-73
2021/05/07 04:53:39;;;;;;;21.48;14.63;;;;;;;7.88;78.58;99531.55;1686512;83;26002;-74
2021/05/07 04:56:06;;;;;;;21.87;13.83;;;;;;;7.86;78.66;99534.42;1705883;83;27542;-73
2021/05/07 04:58:33;;;;;;;21.30;14.85;;;;;;;7.86;78.83;99533.59;1676841;83;26053;-74
2021/05/07 05:01:02;;;;;;;18.92;13.78;;;;;;;7.84;78.93;99535.63;1667059;83;25763;-74
2021/05/07 05:03:29;;;;;;;16.77;13.38;;;;;;;7.80;79.05;99534.67;1677995;83;25779;-73
2021/05/07 05:05:57;;;;;;;18.95;14.43;;;;;;;7.76;78.98;99536.63;1698971;83;25787;-74
2021/05/07 05:08:25;;;;;;;18.07;14.25;;;;;;;7.72;79.35;99532.67;1655470;84;28677;-74
2021/05/07 05:10:56;;;;;;;17.35;14.80;;;;;;;7.71;79.54;99539.03;1675621;83;26017;-74
2021/05/07 05:13:26;;;;;;;17.30;14.25;;;;;;;7.69;79.71;99539.23;1678425;83;25939;-74
2021/05/07 05:15:55;;;;;;;19.85;13.50;;;;;;;7.67;79.74;99535.11;1699580;83;25761;-74
2021/05/07 05:18:31;;;;;;;18.00;14.35;;;;;;;7.67;80.04;99535.11;1647614;85;25859;-74
2021/05/07 05:21:01;;;;;;;18.50;14.13;;;;;;;7.63;80.20;99527.99;1673159;83;26744;-74
2021/05/07 05:23:30;;;;;;;18.40;14.10;;;;;;;7.62;80.35;99530.86;1680332;83;26294;-73
2021/05/07 05:25:57;;;;;;;18.02;14.00;;;;;;;7.59;80.49;99522.73;1696582;83;25745;-73
2021/05/07 05:28:25;;;;;;;16.90;13.70;;;;;;;7.57;80.54;99521.31;1659455;84;26236;-74
2021/05/07 05:30:53;;;;;;;16.62;13.75;;;;;;;7.54;80.67;99527.02;1672559;84;25907;-73
2021/05/07 05:33:21;;;;;;;18.92;14.75;;;;;;;7.50;80.88;99523.92;1674364;84;28408;-74
2021/05/07 05:35:49;;;;;;;20.52;14.98;;;;;;;7.49;81.21;99524.92;1676728;83;26587;-73
2021/05/07 05:38:16;;;;;;;17.90;14.28;;;;;;;7.48;81.24;99526.45;1700756;83;25766;-73
2021/05/07 05:40:43;;;;;;;18.67;15.25;;;;;;;7.49;81.27;99527.59;1658596;85;26142;-74
2021/05/07 05:43:11;;;;;;;19.48;14.87;;;;;;;7.50;81.26;99527.09;1662175;83;25962;-73
2021/05/07 05:45:38;;;;;;;21.50;14.40;;;;;;;7.49;81.47;99523.59;1683402;83;27348;-74
2021/05/07 05:48:14;;;;;;;18.82;13.65;;;;;;;7.49;81.57;99523.59;1697848;83;25842;-74
2021/05/07 05:50:48;;;;;;;18.30;14.33;;;;;;;7.47;81.65;99522.13;1677653;83;25814;-73
2021/05/07 05:53:16;;;;;;;18.77;14.73;;;;;;;7.47;81.68;99526.13;1647649;83;26144;-74
2021/05/07 05:55:44;;;;;;;20.50;13.88;;;;;;;7.48;81.79;99521.96;1678296;83;25889;-74
2021/05/07 05:58:11;;;;;;;20.70;13.95;;;;;;;7.48;81.96;99524.62;1696530;83;28467;-74
2021/05/07 06:00:39;;;;;;;18.23;13.10;;;;;;;7.47;81.91;99521.63;1649105;83;25790;-74
2021/05/07 06:03:06;;;;;;;18.27;12.07;;;;;;;7.50;82.09;99527.09;1665463;83;25923;-75
2021/05/07 06:05:37;;;;;;;19.87;12.78;;;;;;;7.47;82.26;99529.63;1673082;84;25878;-74
2021/05/07 06:08:04;;;;;;;19.35;12.50;;;;;;;7.44;82.23;99531.86;1705405;83;26410;-74
2021/05/07 06:10:32;;;;;;;19.48;12.37;;;;;;;7.41;82.33;99538.39;1662295;83;28242;-74
2021/05/07 06:12:59;;;;;;;21.33;12.07;;;;;;;7.42;82.42;99527.23;1688705;83;25793;-74
2021/05/07 06:15:26;;;;;;;17.73;11.22;;;;;;;7.40;82.56;99534.59;1687245;83;26381;-74
2021/05/07 06:17:54;;;;;;;19.02;11.40;;;;;;;7.39;82.65;99536.92;1700678;83;26430;-73
2021/05/07 06:20:21;;;;;;;16.37;11.12;;;;;;;7.38;82.41;99533.94;1647499;83;26507;-74
2021/05/07 06:22:49;;;;;;;17.15;11.18;;;;;;;7.39;82.50;99539.59;1665037;83;29020;-73
2021/05/07 06:25:20;;;;;;;19.02;11.73;;;;;;;7.41;82.64;99548.22;1677064;83;25845;-74
2021/05/07 06:27:47;;;;;;;14.65;8.80;;;;;;;7.43;83.00;99548.34;1708317;83;25823;-73
2021/05/07 06:30:15;;;;;;;16.67;10.40;;;;;;;7.41;82.71;99549.55;1664074;84;26495;-74
2021/05/07 06:32:43;;;;;;;19.57;10.78;;;;;;;7.40;82.91;99555.38;1668797;84;25894;-73
2021/05/07 06:35:11;;;;;;;17.77;10.40;;;;;;;7.38;82.72;99545.42;1670664;83;27552;-72
2021/05/07 06:37:40;;;;;;;13.95;10.00;;;;;;;7.39;82.73;99547.59;1704106;83;25929;-73
2021/05/07 06:40:08;;;;;;;15.25;10.98;;;;;;;7.38;83.04;99545.92;1658985;84;25958;-73
2021/05/07 06:42:38;;;;;;;14.05;10.43;;;;;;;7.39;82.94;99545.75;1673639;84;25922;-73
2021/05/07 06:45:10;;;;;;;15.38;10.43;;;;;;;7.42;83.26;99552.54;1698169;83;25442;-73
2021/05/07 06:47:38;;;;;;;16.90;11.38;;;;;;;7.42;83.57;99543.22;1702978;83;27593;-74
2021/05/07 06:50:08;;;;;;;16.57;11.45;;;;;;;7.43;83.66;99540.35;1653791;83;25773;-73
2021/05/07 06:52:36;;;;;;;20.10;12.23;;;;;;;7.41;83.78;99539.72;1667252;83;26503;-73
2021/05/07 06:55:06;;;;;;;16.75;11.60;;;;;;;7.42;83.80;99542.69;1675984;83;26326;-72
2021/05/07 06:57:34;;;;;;;15.68;11.75;;;;;;;7.44;84.08;99549.17;1702087;83;25721;-74
2021/05/07 07:00:05;;;;;;;17.07;12.55;;;;;;;7.41;84.08;99545.05;1661456;83;27664;-72
2021/05/07 07:02:32;;;;;;;16.00;12.23;;;;;;;7.42;84.27;99545.88;1677843;83;25841;-74
2021/05/07 07:04:59;;;;;;;15.18;10.25;;;;;;;7.39;84.04;99551.08;1676094;83;25830;-73
2021/05/07 07:07:27;;;;;;;18.42;11.63;;;;;;;7.40;84.29;99547.92;1701325;83;25758;-74
2021/05/07 07:09:54;;;;;;;13.28;11.53;;;;;;;7.39;84.11;99551.08;1652447;85;26014;-73
2021/05/07 07:12:22;;;;;;;14.53;10.38;;;;;;;7.38;84.24;99546.75;1649808;85;28538;-73
2021/05/07 07:14:49;;;;;;;10.98;7.20;;;;;;;7.40;84.03;99539.39;1673279;83;25896;-74
2021/05/07 07:17:17;;;;;;;10.98;6.67;;;;;;;7.39;83.41;99540.92;1700024;83;25713;-73
2021/05/07 07:19:44;;;;;;;7.47;6.20;;;;;;;7.33;83.21;99545.19;1657588;85;25919;-74
2021/05/07 07:22:13;;;;;;;7.30;4.92;;;;;;;7.34;83.21;99545.49;1648884;85;25752;-74
2021/05/07 07:24:40;;;;;;;7.47;4.58;;;;;;;7.35;82.91;99547.16;1677008;83;28306;-72
2021/05/07 07:27:07;;;;;;;8.90;4.17;;;;;;;7.36;82.92;99551.45;1698919;83;25706;-73
2021/05/07 07:29:35;;;;;;;4.53;2.98;;;;;;;7.38;82.95;99552.08;1627241;85;25903;-74
2021/05/07 07:32:02;;;;;;;6.25;3.75;;;;;;;7.38;81.91;99558.74;1648069;85;25787;-73
2021/05/07 07:34:30;;;;;;;3.70;2.27;;;;;;;7.35;81.93;99554.31;1648594;83;25766;-74
2021/05/07 07:36:57;;;;;;;3.52;2.87;;;;;;;7.31;81.63;99565.87;1701073;83;27607;-74
2021/05/07 07:39:24;;;;;;;3.30;2.50;;;;;;;7.31;81.48;99570.37;1646004;85;26227;-73
2021/05/07 07:41:52;;;;;;;3.10;2.80;;;;;;;7.31;81.57;99567.20;1647180;83;25862;-73
2021/05/07 07:44:19;;;;;;;2.85;2.00;;;;;;;7.31;81.74;99563.20;1674763;83;25848;-73
2021/05/07 07:46:46;;;;;;;4.35;2.33;;;;;;;7.32;82.21;99563.51;1701335;83;26128;-74
2021/05/07 07:49:14;;;;;;;3.37;2.45;;;;;;;7.34;81.60;99569.47;1625123;85;27568;-73
2021/05/07 07:51:41;;;;;;;3.22;2.27;;;;;;;7.37;81.58;99566.44;1651047;83;26124;-73
2021/05/07 07:54:11;;;;;;;6.00;2.60;;;;;;;7.41;81.79;99567.70;1683936;83;26534;-73
2021/05/07 07:56:40;;;;;;;2.55;2.30;;;;;;;7.48;81.59;99576.58;1698530;83;26524;-73
2021/05/07 07:59:07;;;;;;;3.20;2.40;;;;;;;7.50;81.55;99569.22;1621856;85;25807;-73
2021/05/07 08:01:34;;;;;;;3.12;2.67;;;;;;;7.52;81.80;99578.34;1648862;85;27540;-74
2021/05/07 08:04:02;;;;;;;2.45;2.10;;;;;;;7.57;81.36;99581.27;1677051;83;26466;-72
2021/05/07 08:06:30;;;;;;;2.22;1.98;;;;;;;7.62;81.31;99580.16;1696170;83;25796;-73
2021/05/07 08:08:57;;;;;;;2.60;2.08;;;;;;;7.67;81.60;99577.75;1664026;83;26342;-74
2021/05/07 08:11:25;;;;;;;4.55;2.35;;;;;;;7.76;82.34;99572.61;1662456;83;25908;-73
2021/05/07 08:13:52;;;;;;;2.35;1.90;;;;;;;7.86;82.30;99577.08;1693324;83;27360;-73
2021/05/07 08:16:19;;;;;;;3.42;2.22;;;;;;;7.92;81.60;99571.47;1700513;83;25777;-74
2021/05/07 08:18:47;;;;;;;2.40;2.20;;;;;;;7.99;81.52;99576.34;1660580;83;26143;-74
2021/05/07 08:21:14;;;;;;;3.10;2.30;;;;;;;8.05;81.11;99571.56;1665017;83;26442;-74
2021/05/07 08:23:41;;;;;;;3.25;2.10;;;;;;;8.06;80.94;99571.36;1698308;83;26400;-73
2021/05/07 08:26:10;;;;;;;2.02;1.75;;;;;;;8.13;81.08;99582.91;1705234;83;27534;-75
2021/05/07 08:28:38;;;;;;;3.58;1.72;;;;;;;8.18;80.37;99587.15;1687800;82;26529;-74
2021/05/07 08:31:05;;;;;;;1.70;1.60;;;;;;;8.19;80.17;99591.98;1683147;83;25896;-73
2021/05/07 08:33:32;;;;;;;4.47;1.90;;;;;;;8.20;80.13;99589.11;1674476;83;25902;-74
2021/05/07 08:36:00;;;;;;;3.75;1.85;;;;;;;8.24;79.90;99591.70;1704304;83;25759;-74
2021/05/07 08:38:27;;;;;;;2.72;2.00;;;;;;;8.24;80.00;99594.36;1663917;83;28451;-74
2021/05/07 08:40:56;;;;;;;2.80;2.35;;;;;;;8.29;80.09;99592.48;1638661;83;25925;-74
2021/05/07 08:43:23;;;;;;;2.70;1.92;;;;;;;8.26;79.51;99594.19;1679162;83;25835;-74
2021/05/07 08:45:51;;;;;;;3.00;2.47;;;;;;;8.23;79.57;99596.70;1704635;83;25857;-75
2021/05/07 08:48:19;;;;;;;3.15;2.60;;;;;;;8.20;79.66;99599.78;1670700;83;26239;-74
2021/05/07 08:50:51;;;;;;;5.35;3.00;;;;;;;8.15;79.51;99596.86;1706447;83;28532;-75
2021/05/07 08:53:21;;;;;;;4.72;2.60;;;;;;;8.09;79.41;99590.98;1677982;83;26164;-74
2021/05/07 08:55:48;;;;;;;5.25;2.85;;;;;;;8.09;79.98;99593.65;1703416;83;26034;-74
2021/05/07 08:58:17;;;;;;;4.45;2.40;;;;;;;8.08;79.63;99600.02;1670964;83;26447;-74
2021/05/07 09:00:45;;;;;;;4.90;3.30;;;;;;;8.07;79.83;99602.36;1700072;83;25916;-76
2021/05/07 09:03:14;;;;;;;3.77;2.62;;;;;;;8.06;80.13;99603.89;1656526;83;28462;-73
2021/05/07 09:05:42;;;;;;;4.28;2.60;;;;;;;8.08;79.47;99604.52;1682177;83;25944;-73
2021/05/07 09:08:09;;;;;;;5.22;2.87;;;;;;;8.05;79.37;99607.06;1705746;83;25825;-73
2021/05/07 09:10:46;;;;;;;7.33;3.52;;;;;;;8.02;79.50;99619.97;1659525;84;26416;-73
2021/05/07 09:13:18;;;;;;;3.15;2.62;;;;;;;7.96;79.14;99613.55;1690587;83;25809;-74
2021/05/07 09:15:49;;;;;;;5.28;2.60;;;;;;;7.95;79.36;99619.92;1672142;83;29181;-74
2021/05/07 09:18:18;;;;;;;3.75;2.42;;;;;;;7.99;79.82;99628.34;1700635;83;25770;-74
2021/05/07 09:20:48;;;;;;;3.45;2.75;;;;;;;8.03;79.66;99631.77;1675408;84;25852;-73
2021/05/07 09:23:18;;;;;;;4.03;2.77;;;;;;;8.05;79.23;99636.40;1680939;82;25797;-75
2021/05/07 09:26:00;;;;;;;3.98;2.70;;;;;;;8.06;79.26;99638.56;1708817;82;25790;-75
2021/05/07 09:28:28;;;;;;;3.77;2.87;;;;;;;8.09;78.82;99632.83;1694135;83;27547;-73
2021/05/07 09:31:13;;;;;;;3.30;2.50;;;;;;;8.07;78.78;99634.36;1674428;83;25969;-75
2021/05/07 09:33:47;;;;;;;6.85;3.20;;;;;;;8.09;78.89;99640.33;1686229;83;25907;-73
2021/05/07 09:36:29;;;;;;;5.90;3.65;;;;;;;8.14;79.13;99641.08;1680075;83;25902;-74
2021/05/07 09:38:57;;;;;;;3.87;3.08;;;;;;;8.24;79.91;99637.55;1698860;83;25744;-74
2021/05/07 09:41:24;;;;;;;3.10;2.75;;;;;;;8.37;79.86;99639.00;1684514;82;27484;-75
2021/05/07 09:43:52;;;;;;;4.78;2.60;;;;;;;8.49;79.67;99642.27;1724155;82;26219;-73
2021/05/07 09:46:19;;;;;;;2.50;2.30;;;;;;;8.52;78.31;99641.88;1701721;82;25970;-74
2021/05/07 09:48:46;;;;;;;3.83;2.70;;;;;;;8.58;78.35;99646.93;1681122;83;25785;-74
2021/05/07 09:51:14;;;;;;;2.83;2.20;;;;;;;8.69;79.06;99646.88;1679008;84;26360;-73
2021/05/07 09:53:42;;;;;;;2.90;2.10;;;;;;;8.81;78.45;99645.32;1689007;83;27530;-74
2021/05/07 09:56:16;;;;;;;2.80;2.50;;;;;;;8.88;77.21;99643.48;1679351;82;25891;-74
2021/05/07 09:58:43;;;;;;;2.37;2.08;;;;;;;8.95;76.13;99653.19;1701337;83;26308;-76
2021/05/07 10:01:11;;;;;;;2.83;1.92;;;;;;;9.02;76.29;99647.37;1656158;83;25719;-77
2021/05/07 10:03:40;;;;;;;2.22;1.92;;;;;;;9.10;75.74;99655.70;1654219;85;26084;-77
2021/05/07 10:06:07;;;;;;;2.35;2.15;;;;;;;9.18;75.72;99655.02;1673224;83;27268;-77
2021/05/07 10:08:45;;;;;;;5.25;2.17;;;;;;;9.28;75.60;99660.80;1707353;83;26011;-77
2021/05/07 10:11:13;;;;;;;2.50;2.30;;;;;;;9.37;75.11;99657.96;1694854;83;25794;-77
2021/05/07 10:13:42;;;;;;;3.55;2.35;;;;;;;9.37;74.64;99664.11;1698577;83;26273;-76
2021/05/07 10:16:10;;;;;;;3.08;2.40;;;;;;;9.38;73.83;99659.59;1659032;83;26365;-74
2021/05/07 10:18:39;;;;;;;2.65;2.00;;;;;;;9.39;74.41;99654.03;1704399;83;28423;-74
2021/05/07 10:21:12;;;;;;;2.72;2.30;;;;;;;9.46;73.99;99667.42;1627033;84;25769;-75
2021/05/07 10:23:53;;;;;;;2.90;2.22;;;;;;;9.46;73.49;99674.10;1655095;83;26408;-77
2021/05/07 10:26:40;;;;;;;2.75;1.98;;;;;;;9.40;72.99;99677.58;1670615;83;25863;-74
2021/05/07 10:29:27;;;;;;;2.27;2.02;;;;;;;9.32;72.44;99677.27;1680341;83;25828;-75
2021/05/07 10:31:57;;;;;;;3.05;2.10;;;;;;;9.23;72.63;99677.95;1694039;82;27586;-75
2021/05/07 10:34:27;;;;;;;3.00;2.23;;;;;;;9.18;73.02;99683.07;1658631;83;25853;-76
2021/05/07 10:36:57;;;;;;;4.17;2.42;;;;;;;9.10;72.39;99679.24;1674946;83;26049;-73
2021/05/07 10:39:30;;;;;;;2.37;2.08;;;;;;;9.08;72.30;99685.30;1703148;83;25914;-74
2021/05/07 10:42:01;;;;;;;2.42;2.20;;;;;;;9.04;73.03;99686.72;1659351;83;25831;-75
2021/05/07 10:44:33;;;;;;;3.22;2.55;;;;;;;9.04;72.86;99689.39;1648648;84;28476;-75
2021/05/07 10:47:07;;;;;;;3.62;2.35;;;;;;;9.07;73.36;99687.64;1671862;84;25889;-73
2021/05/07 10:49:37;;;;;;;4.15;2.00;;;;;;;9.11;73.40;99681.41;1703295;83;25801;-74
2021/05/07 10:52:07;;;;;;;3.00;2.17;;;;;;;9.14;72.95;99676.98;1654847;83;25863;-75
2021/05/07 10:54:39;;;;;;;3.72;2.35;;;;;;;9.18;73.21;99672.89;1654880;83;26145;-75
2021/05/07 10:57:24;;;;;;;3.22;2.75;;;;;;;9.22;73.90;99675.47;1671406;83;28382;-75
2021/05/07 10:59:56;;;;;;;3.15;2.30;;;;;;;9.25;73.27;99677.75;1697734;83;26104;-74
2021/05/07 11:02:24;;;;;;;3.42;2.45;;;;;;;9.26;73.22;99681.55;1694364;83;25843;-74
2021/05/07 11:04:52;;;;;;;2.65;2.45;;;;;;;9.37;73.62;99690.03;1670730;82;25758;-74
2021/05/07 11:07:29;;;;;;;2.47;2.27;;;;;;;9.51;73.79;99683.18;1685900;83;25919;-74
2021/05/07 11:10:08;;;;;;;3.40;2.60;;;;;;;9.67;73.02;99677.95;1705380;83;27611;-74
2021/05/07 11:12:39;;;;;;;5.78;3.15;;;;;;;9.81;73.00;99675.63;1640396;83;26479;-76
2021/05/07 11:15:16;;;;;;;3.15;2.62;;;;;;;9.99;72.63;99676.66;1682429;84;25801;-76
2021/05/07 11:17:43;;;;;;;3.95;2.58;;;;;;;10.09;72.80;99681.61;1682062;84;25896;-73
2021/05/07 11:20:11;;;;;;;3.55;2.98;;;;;;;10.16;72.08;99675.75;1705012;83;25830;-75
2021/05/07 11:22:40;;;;;;;3.50;3.12;;;;;;;10.15;71.27;99679.98;1662545;84;28712;-75
2021/05/07 11:25:09;;;;;;;3.55;3.20;;;;;;;10.17;70.66;99678.75;1643345;83;25432;-74
2021/05/07 11:27:39;;;;;;;4.20;3.33;;;;;;;10.20;70.72;99677.52;1681415;83;26012;-75
2021/05/07 11:30:11;;;;;;;5.17;4.00;;;;;;;10.21;70.55;99682.66;1706841;83;26935;-74
2021/05/07 11:32:37;;;;;;;4.28;3.10;;;;;;;10.20;70.33;99681.54;1658841;83;26059;-74
2021/05/07 11:35:12;;;;;;;4.58;3.37;;;;;;;10.19;69.72;99687.40;1683714;83;27624;-75
2021/05/07 11:37:43;;;;;;;3.08;2.77;;;;;;;10.15;69.46;99678.65;1697745;83;26547;-74
2021/05/07 11:40:16;;;;;;;3.45;3.15;;;;;;;10.10;69.12;99683.24;1710651;83;25845;-75